createdAt,value
2023-02-19T00:05:42.300Z,23.30
2023-02-19T00:10:42.308Z,22.20
2023-02-19T00:15:42.296Z,22.20
2023-02-19T00:20:42.294Z,19.90
2023-02-19T00:40:42.409Z,28.40
2023-02-19T00:50:42.830Z,23.10
2023-02-19T00:55:42.390Z,23.10
2023-02-19T01:00:42.376Z,23.80
2023-02-19T01:05:42.379Z,23.80
2023-02-19T01:10:42.891Z,26.30
2023-02-19T01:15:43.730Z,26.30
2023-02-19T01:20:43.843Z,22.90
2023-02-19T01:30:42.513Z,21.30
2023-02-19T01:40:42.505Z,20.30
2023-02-19T01:45:44.071Z,20.30
2023-02-19T02:05:54.861Z,18.50
2023-02-19T02:10:43.313Z,16.10
2023-02-19T02:16:02.555Z,16.10
2023-02-19T02:20:55.879Z,17.40
2023-02-19T02:25:53.633Z,17.40
2023-02-19T02:30:45.273Z,16.40
2023-02-19T02:35:49.838Z,16.40
2023-02-19T02:40:44.012Z,18.30
2023-02-19T02:45:42.796Z,18.30
2023-02-19T02:55:45.210Z,15.60
2023-02-19T03:00:58.266Z,18.10
2023-02-19T03:05:51.924Z,18.10
2023-02-19T03:10:50.228Z,15.40
2023-02-19T03:15:58.619Z,15.40
2023-02-19T03:20:47.603Z,18.50
2023-02-19T03:35:47.606Z,16.50
2023-02-19T04:05:47.848Z,17.90
2023-02-19T04:10:45.878Z,17.40
2023-02-19T04:15:45.030Z,17.40
2023-02-19T04:25:45.638Z,16.90
2023-02-19T04:30:43.496Z,16.90
2023-02-19T04:35:42.958Z,16.90
2023-02-19T04:45:43.026Z,15.30
2023-02-19T04:50:43.094Z,18.00
2023-02-19T05:05:43.042Z,15.20
2023-02-19T05:10:43.020Z,17.10
2023-02-19T05:15:54.252Z,17.10
2023-02-19T05:20:43.051Z,16.30
2023-02-19T05:25:43.238Z,16.30
2023-02-19T05:30:46.620Z,20.40
2023-02-19T05:45:43.139Z,20.90
2023-02-19T05:50:43.241Z,20.00
2023-02-19T05:55:43.180Z,20.00
2023-02-19T06:15:43.275Z,21.90
2023-02-19T06:20:43.233Z,22.20
2023-02-19T06:25:43.239Z,22.20
2023-02-19T06:30:43.258Z,20.20
2023-02-19T06:40:43.261Z,22.50
2023-02-19T07:05:43.447Z,21.70
2023-02-19T07:10:44.645Z,19.20
2023-02-19T07:15:43.354Z,19.20
2023-02-19T07:20:43.372Z,20.40
2023-02-19T07:30:43.499Z,22.10
2023-02-19T07:35:48.185Z,22.10
2023-02-19T07:40:51.251Z,25.50
2023-02-19T07:45:43.558Z,25.50
2023-02-19T07:50:54.281Z,21.70
2023-02-19T07:55:43.543Z,21.70
2023-02-19T08:05:43.950Z,21.50
2023-02-19T08:10:53.469Z,22.00
2023-02-19T08:15:44.175Z,22.00
2023-02-19T08:20:43.665Z,26.00
2023-02-19T08:30:45.748Z,22.50
2023-02-19T08:35:44.188Z,22.50
2023-02-19T08:45:46.290Z,25.00
2023-02-19T08:50:43.588Z,26.80
2023-02-19T08:55:43.580Z,26.80
2023-02-19T09:05:45.795Z,22.30
2023-02-19T09:10:43.669Z,17.30
2023-02-19T09:15:43.696Z,17.30
2023-02-19T09:20:43.680Z,12.80
2023-02-19T09:25:43.817Z,12.80
2023-02-19T09:35:43.746Z,10.00
2023-02-19T09:40:43.817Z,8.20
2023-02-19T09:45:43.769Z,8.20
2023-02-19T09:55:44.229Z,10.60
2023-02-19T10:00:47.668Z,10.30
2023-02-19T10:05:43.985Z,10.30
2023-02-19T10:10:44.529Z,7.60
2023-02-19T10:15:49.423Z,7.60
2023-02-19T10:20:45.404Z,7.90
2023-02-19T10:25:53.238Z,7.90
2023-02-19T10:30:50.299Z,7.90
2023-02-19T10:35:54.546Z,7.90
2023-02-19T10:40:45.161Z,7.10
2023-02-19T10:50:55.018Z,4.30
2023-02-19T11:00:43.916Z,3.80
2023-02-19T11:10:47.217Z,5.20
2023-02-19T11:15:51.753Z,5.20
2023-02-19T11:20:54.739Z,3.90
2023-02-19T11:25:47.674Z,3.90
2023-02-19T11:30:45.601Z,5.10
2023-02-19T11:35:44.828Z,5.10
2023-02-19T11:40:47.291Z,5.90
2023-02-19T11:45:51.116Z,5.90
2023-02-19T12:00:58.425Z,3.60
2023-02-19T12:05:51.061Z,3.60
2023-02-19T12:11:03.984Z,6.30
2023-02-19T12:21:02.588Z,16.10
2023-02-19T12:25:54.465Z,16.10
2023-02-19T12:30:54.111Z,7.60
2023-02-19T12:41:01.524Z,2.00
2023-02-19T12:45:55.243Z,2.00
2023-02-19T12:50:48.375Z,2.90
2023-02-19T12:52:23.692Z,2.90
2023-02-19T12:52:27.768Z,2.90
2023-02-19T12:52:35.621Z,2.90
2023-02-19T12:52:39.867Z,2.90
2023-02-19T13:00:50.514Z,2.90
2023-02-19T13:05:53.053Z,2.90
2023-02-19T13:10:50.504Z,2.70
2023-02-19T13:17:00.770Z,2.70
2023-02-19T13:17:16.032Z,2.70
2023-02-19T13:17:18.284Z,2.70
2023-02-19T13:17:27.557Z,2.70
2023-02-19T13:20:46.838Z,3.00
2023-02-19T13:26:00.957Z,3.00
2023-02-19T13:30:58.211Z,1.80
2023-02-19T13:36:04.918Z,1.80
2023-02-19T13:40:54.664Z,2.60
2023-02-19T13:45:45.372Z,2.60
2023-02-19T13:50:44.462Z,3.60
2023-02-19T13:55:50.472Z,3.60
2023-02-19T14:00:49.375Z,4.40
2023-02-19T14:05:57.617Z,4.40
2023-02-19T14:10:51.791Z,2.90
2023-02-19T14:15:48.628Z,2.90
2023-02-19T14:20:44.826Z,2.50
2023-02-19T14:25:48.654Z,2.50
2023-02-19T14:31:04.395Z,4.40
2023-02-19T14:40:45.697Z,4.90
2023-02-19T14:45:52.136Z,4.90
2023-02-19T14:50:49.057Z,3.10
2023-02-19T14:55:45.673Z,3.10
2023-02-19T15:00:44.615Z,3.30
2023-02-19T15:05:44.626Z,3.30
2023-02-19T15:10:45.574Z,3.90
2023-02-19T15:15:45.421Z,3.90
2023-02-19T15:20:44.902Z,3.50
2023-02-19T15:25:44.657Z,3.50
2023-02-19T15:30:44.804Z,2.60
2023-02-19T15:35:55.763Z,2.60
2023-02-19T15:40:46.316Z,3.60
2023-02-19T15:45:46.296Z,3.60
2023-02-19T15:50:51.564Z,5.60
2023-02-19T15:55:57.367Z,5.60
2023-02-19T16:10:53.048Z,4.80
2023-02-19T16:15:56.451Z,4.80
2023-02-19T16:20:46.483Z,4.60
2023-02-19T16:25:45.974Z,4.60
2023-02-19T16:30:45.075Z,3.50
2023-02-19T16:35:47.322Z,3.50
2023-02-19T16:41:04.683Z,4.40
2023-02-19T16:45:46.319Z,4.40
2023-02-19T16:50:45.291Z,5.80
2023-02-19T17:00:45.929Z,4.90
2023-02-19T17:05:45.489Z,4.90
2023-02-19T17:10:44.923Z,3.60
2023-02-19T17:15:44.942Z,3.60
2023-02-19T17:20:50.758Z,3.80
2023-02-19T17:25:45.089Z,3.80
2023-02-19T17:30:44.911Z,4.50
2023-02-19T17:35:44.941Z,4.50
2023-02-19T17:40:44.968Z,6.00
2023-02-19T17:50:45.049Z,4.20
2023-02-19T17:55:45.096Z,4.20
2023-02-19T18:00:45.050Z,6.20
2023-02-19T18:10:45.051Z,2.80
2023-02-19T18:15:45.055Z,2.80
2023-02-19T18:25:45.995Z,5.50
2023-02-19T18:30:45.299Z,7.00
2023-02-19T18:35:48.205Z,7.00
2023-02-19T18:40:45.774Z,6.20
2023-02-19T18:45:45.645Z,6.20
2023-02-19T18:50:45.162Z,6.00
2023-02-19T18:55:45.167Z,6.00
2023-02-19T19:05:45.202Z,4.00
2023-02-19T19:10:45.179Z,4.30
2023-02-19T19:15:48.796Z,4.30
2023-02-19T19:25:45.220Z,4.70
2023-02-19T19:30:45.411Z,4.80
2023-02-19T19:35:45.275Z,4.80
2023-02-19T19:40:45.292Z,5.70
2023-02-19T19:50:45.354Z,5.90
2023-02-19T19:55:45.280Z,5.90
2023-02-19T20:05:49.221Z,6.40
2023-02-19T20:10:45.566Z,5.90
2023-02-19T20:20:45.433Z,7.00
2023-02-19T20:25:45.364Z,7.00
2023-02-19T20:35:45.391Z,7.80
2023-02-19T20:40:45.578Z,9.10
2023-02-19T20:45:46.767Z,9.10
2023-02-19T20:50:45.596Z,10.20
2023-02-19T20:55:45.430Z,10.20
2023-02-19T21:00:45.569Z,11.00
2023-02-19T21:10:45.661Z,10.50
2023-02-19T21:15:45.554Z,10.50
2023-02-19T21:35:45.565Z,13.40
2023-02-19T21:50:46.738Z,14.10
2023-02-19T22:00:45.644Z,14.10
2023-02-19T22:05:45.637Z,14.10
2023-02-19T22:20:45.692Z,14.30
2023-02-19T22:30:45.727Z,12.20
2023-02-19T22:35:45.701Z,12.20
2023-02-19T22:40:45.752Z,11.70
2023-02-19T22:50:45.853Z,12.70
2023-02-19T22:55:45.766Z,12.70
2023-02-19T23:05:45.801Z,13.10
2023-02-19T23:10:45.798Z,14.80
2023-02-19T23:15:45.909Z,14.80
2023-02-19T23:40:46.001Z,19.00
2023-02-19T23:45:46.064Z,19.00
2023-02-19T23:50:45.940Z,23.70
